Terminal Aerodrome Forecast
Issued by NWS

Home | Current Version | Previous Version | Text Only | Print | Product List | Glossary On
Versions: 1 2 3 4 5 6 7 8 9 10 11 12
000
FTUS42 TJSJ 231700 RRA
TAFIST
TAF
TIST 231742Z 2318/2418 17007KT P6SM VCSH FEW030
     FM232000 14007KT P6SM FEW030
     FM241300 13012KT P6SM SCT025=

USA.gov is the U.S. government's official web portal to all federal, state and local government web resources and services.